Terminal Aerodrome Forecast
Issued by NWS

Current Version | Previous Version | Text Only | Print | Product List | Glossary On
Versions: 1 2 3 4 5 6 7 8 9 10 11
000
FTUS45 KABQ 261700
TAFLVS
TAF
KLVS 261734Z 2618/2718 16010KT 1SM -SN OVC015
      TEMPO 2618/2622 1/2SM SN FZFG OVC006
     FM270000 19008KT P6SM SCT015 BKN050
     FM270400 VRB05KT P6SM SCT060
     FM271000 VRB05KT P6SM VCFG SCT005
     FM271600 17008KT P6SM SKC=

USA.gov is the U.S. government's official web portal to all federal, state and local government web resources and services.